createdAt,value
2023-05-21T00:01:25.986Z,14.30
2023-05-21T00:03:53.340Z,15.80
2023-05-21T00:06:21.162Z,14.80
2023-05-21T00:08:48.585Z,14.98
2023-05-21T00:11:15.308Z,14.38
2023-05-21T00:13:42.732Z,15.18
2023-05-21T00:16:11.402Z,14.50
2023-05-21T00:18:39.320Z,14.65
2023-05-21T00:21:06.636Z,14.63
2023-05-21T00:23:34.312Z,14.77
2023-05-21T00:26:01.168Z,15.38
2023-05-21T00:28:28.502Z,15.70
2023-05-21T00:30:55.431Z,15.52
2023-05-21T00:33:26.621Z,16.73
2023-05-21T00:35:53.531Z,15.68
2023-05-21T00:38:22.281Z,15.70
2023-05-21T00:40:49.356Z,15.30
2023-05-21T00:43:16.982Z,15.85
2023-05-21T00:45:47.373Z,15.52
2023-05-21T00:48:15.037Z,14.77
2023-05-21T00:50:42.400Z,14.50
2023-05-21T00:53:12.462Z,15.10
2023-05-21T00:55:39.903Z,14.68
2023-05-21T00:58:08.333Z,15.38
2023-05-21T01:00:36.253Z,15.85
2023-05-21T01:03:05.068Z,14.15
2023-05-21T01:05:32.390Z,15.10
2023-05-21T01:08:03.293Z,15.43
2023-05-21T01:10:30.739Z,15.35
2023-05-21T01:12:59.491Z,15.50
2023-05-21T01:15:27.292Z,14.98
2023-05-21T01:17:56.071Z,16.20
2023-05-21T01:20:24.258Z,16.08
2023-05-21T01:22:56.064Z,15.65
2023-05-21T01:25:24.787Z,15.15
2023-05-21T01:27:52.667Z,16.20
2023-05-21T01:30:22.084Z,15.32
2023-05-21T01:33:01.997Z,13.98
2023-05-21T01:35:50.351Z,14.63
2023-05-21T01:38:24.718Z,14.35
2023-05-21T01:40:58.567Z,14.52
2023-05-21T01:43:29.454Z,14.15
2023-05-21T01:45:57.264Z,13.23
2023-05-21T01:48:27.380Z,13.80
2023-05-21T01:50:57.576Z,13.63
2023-05-21T01:53:25.283Z,14.10
2023-05-21T01:55:52.201Z,13.50
2023-05-21T01:58:21.369Z,12.55
2023-05-21T02:00:50.867Z,12.70
2023-05-21T02:03:20.422Z,12.25
2023-05-21T02:05:47.371Z,12.40
2023-05-21T02:08:19.881Z,11.73
2023-05-21T02:10:46.559Z,9.13
2023-05-21T02:13:13.885Z,12.27
2023-05-21T02:15:40.586Z,11.50
2023-05-21T02:18:08.685Z,11.88
2023-05-21T02:20:36.519Z,11.43
2023-05-21T02:23:03.791Z,11.95
2023-05-21T02:25:30.554Z,11.20
2023-05-21T02:27:57.882Z,11.02
2023-05-21T02:30:24.578Z,11.35
2023-05-21T02:32:51.588Z,10.98
2023-05-21T02:35:18.281Z,10.68
2023-05-21T02:37:45.722Z,10.75
2023-05-21T02:40:13.006Z,11.48
2023-05-21T02:42:41.616Z,10.30
2023-05-21T02:45:12.695Z,10.30
2023-05-21T02:47:42.440Z,10.35
2023-05-21T02:50:09.605Z,9.85
2023-05-21T02:52:44.115Z,10.52
2023-05-21T02:55:10.970Z,10.73
2023-05-21T02:57:38.366Z,10.73
2023-05-21T03:00:06.071Z,10.73
2023-05-21T03:02:33.664Z,10.63
2023-05-21T03:05:00.709Z,9.98
2023-05-21T03:07:27.999Z,11.07
2023-05-21T03:09:54.882Z,10.45
2023-05-21T03:12:22.299Z,10.63
2023-05-21T03:14:51.256Z,10.13
2023-05-21T03:17:20.786Z,9.75
2023-05-21T03:19:48.976Z,10.40
2023-05-21T03:22:16.513Z,10.32
2023-05-21T03:24:45.064Z,9.05
2023-05-21T03:27:13.167Z,10.43
2023-05-21T03:29:39.953Z,9.88
2023-05-21T03:32:08.365Z,10.23
2023-05-21T03:34:35.550Z,9.88
2023-05-21T03:37:03.158Z,10.57
2023-05-21T03:39:31.055Z,9.68
2023-05-21T03:41:59.126Z,8.90
2023-05-21T03:44:35.508Z,9.48
2023-05-21T03:47:29.181Z,10.07
2023-05-21T03:49:57.123Z,9.80
2023-05-21T03:52:24.215Z,10.43
2023-05-21T03:54:50.938Z,9.85
2023-05-21T03:57:18.307Z,9.48
2023-05-21T03:59:46.422Z,8.90
2023-05-21T04:02:14.903Z,9.60
2023-05-21T04:04:43.251Z,10.18
2023-05-21T04:07:14.775Z,10.07
2023-05-21T04:09:42.001Z,9.70
2023-05-21T04:12:09.154Z,9.98
2023-05-21T04:14:40.363Z,9.75
2023-05-21T04:17:07.727Z,9.90
2023-05-21T04:19:34.954Z,9.20
2023-05-21T04:22:03.897Z,9.07
2023-05-21T04:24:31.145Z,9.35
2023-05-21T04:27:10.177Z,9.88
2023-05-21T04:29:37.645Z,10.10
2023-05-21T04:32:05.461Z,10.15
2023-05-21T04:34:34.680Z,9.80
2023-05-21T04:37:02.569Z,9.27
2023-05-21T04:39:31.415Z,10.40
2023-05-21T04:41:58.763Z,10.38
2023-05-21T04:44:26.158Z,10.00
2023-05-21T04:46:55.007Z,10.15
2023-05-21T04:49:21.871Z,9.15
2023-05-21T04:51:52.153Z,9.57
2023-05-21T04:54:19.107Z,10.40
2023-05-21T04:56:47.685Z,10.57
2023-05-21T04:59:16.661Z,10.32
2023-05-21T05:01:44.143Z,9.57
2023-05-21T05:04:10.935Z,10.88
2023-05-21T05:06:38.334Z,10.75
2023-05-21T05:09:05.571Z,10.15
2023-05-21T05:11:33.062Z,10.70
2023-05-21T05:13:59.799Z,10.07
2023-05-21T05:16:28.223Z,10.70
2023-05-21T05:18:56.933Z,10.48
2023-05-21T05:21:24.360Z,9.52
2023-05-21T05:23:51.255Z,10.55
2023-05-21T05:26:21.880Z,9.70
2023-05-21T05:28:49.231Z,10.15
2023-05-21T05:31:16.944Z,10.32
2023-05-21T05:33:44.063Z,10.23
2023-05-21T05:36:12.063Z,9.75
2023-05-21T05:38:38.860Z,9.85
2023-05-21T05:41:06.488Z,9.75
2023-05-21T05:43:33.254Z,10.10
2023-05-21T05:46:01.428Z,9.63
2023-05-21T05:48:28.581Z,9.68
2023-05-21T05:50:57.386Z,10.35
2023-05-21T05:53:25.814Z,10.63
2023-05-21T05:55:54.022Z,9.77
2023-05-21T05:58:20.783Z,9.77
2023-05-21T06:00:57.731Z,10.35
2023-05-21T06:03:25.284Z,10.82
2023-05-21T06:05:53.928Z,9.80
2023-05-21T06:08:20.738Z,10.48
2023-05-21T06:10:48.087Z,10.02
2023-05-21T06:13:15.093Z,10.88
2023-05-21T06:15:43.565Z,9.60
2023-05-21T06:18:11.328Z,10.80
2023-05-21T06:20:38.921Z,10.27
2023-05-21T06:23:07.192Z,10.35
2023-05-21T06:25:35.016Z,10.10
2023-05-21T06:28:02.108Z,10.52
2023-05-21T06:30:30.807Z,9.98
2023-05-21T06:32:57.614Z,10.20
2023-05-21T06:35:25.346Z,10.23
2023-05-21T06:37:52.122Z,9.98
2023-05-21T06:40:20.813Z,10.60
2023-05-21T06:42:48.274Z,10.50
2023-05-21T06:45:21.454Z,10.13
2023-05-21T06:47:51.782Z,9.93
2023-05-21T06:50:18.734Z,10.32
2023-05-21T06:52:46.226Z,10.18
2023-05-21T06:55:13.778Z,9.55
2023-05-21T06:58:02.376Z,9.98
2023-05-21T07:00:30.526Z,11.07
2023-05-21T07:02:58.401Z,10.00
2023-05-21T07:05:25.670Z,10.52
2023-05-21T07:07:54.904Z,10.50
2023-05-21T07:10:21.741Z,9.95
2023-05-21T07:12:49.012Z,9.95
2023-05-21T07:15:15.709Z,11.10
2023-05-21T07:17:43.612Z,10.50
2023-05-21T07:20:11.497Z,10.98
2023-05-21T07:22:43.325Z,10.00
2023-05-21T07:25:11.733Z,10.57
2023-05-21T07:27:39.034Z,10.50
2023-05-21T07:30:06.402Z,11.25
2023-05-21T07:32:33.826Z,10.68
2023-05-21T07:35:03.660Z,11.02
2023-05-21T07:37:31.919Z,10.30
2023-05-21T07:39:59.307Z,11.30
2023-05-21T07:42:26.683Z,11.32
2023-05-21T07:44:56.045Z,10.70
2023-05-21T07:47:24.538Z,10.95
2023-05-21T07:49:51.700Z,11.10
2023-05-21T07:52:19.173Z,11.95
2023-05-21T07:54:45.933Z,11.70
2023-05-21T07:57:13.104Z,10.80
2023-05-21T08:00:01.178Z,12.35
2023-05-21T08:02:30.693Z,11.70
2023-05-21T08:04:59.180Z,11.98
2023-05-21T08:07:26.508Z,12.00
2023-05-21T08:09:54.669Z,15.65
2023-05-21T08:12:21.448Z,13.18
2023-05-21T08:14:48.971Z,12.90
2023-05-21T08:17:16.810Z,11.68
2023-05-21T08:19:44.353Z,11.40
2023-05-21T08:22:11.075Z,12.30
2023-05-21T08:24:41.813Z,12.88
2023-05-21T08:27:08.504Z,13.27
2023-05-21T08:29:35.671Z,12.02
2023-05-21T08:32:03.451Z,12.65
2023-05-21T08:34:30.580Z,12.15
2023-05-21T08:37:10.536Z,13.20
2023-05-21T08:40:01.064Z,13.85
2023-05-21T08:42:41.022Z,13.45
2023-05-21T08:45:11.031Z,12.68
2023-05-21T08:47:38.780Z,12.38
2023-05-21T08:50:11.090Z,13.40
2023-05-21T08:52:38.441Z,13.38
2023-05-21T08:55:06.135Z,13.05
2023-05-21T08:57:34.843Z,12.25
2023-05-21T09:00:04.542Z,12.35
2023-05-21T09:02:35.612Z,13.68
2023-05-21T09:05:04.411Z,13.00
2023-05-21T09:07:34.657Z,13.85
2023-05-21T09:12:54.576Z,12.95
2023-05-21T09:15:21.927Z,13.93
2023-05-21T09:17:49.244Z,14.15
2023-05-21T09:20:39.028Z,14.75
2023-05-21T09:23:12.497Z,14.30
2023-05-21T09:25:39.880Z,13.95
2023-05-21T09:28:13.491Z,14.23
2023-05-21T09:30:53.905Z,14.55
2023-05-21T09:33:31.774Z,14.60
2023-05-21T09:35:58.567Z,13.45
2023-05-21T09:38:27.471Z,13.73
2023-05-21T09:40:56.864Z,13.25
2023-05-21T09:43:25.602Z,13.82
2023-05-21T09:45:55.678Z,14.73
2023-05-21T09:48:44.824Z,15.18
2023-05-21T09:51:17.370Z,15.25
2023-05-21T09:53:47.465Z,15.88
2023-05-21T09:56:14.184Z,14.70
2023-05-21T09:58:41.288Z,15.32
2023-05-21T10:01:10.370Z,16.10
2023-05-21T10:03:41.039Z,16.15
2023-05-21T10:06:12.098Z,14.82
2023-05-21T10:08:44.794Z,15.35
2023-05-21T10:11:12.178Z,15.75
2023-05-21T10:13:45.412Z,15.73
2023-05-21T10:18:41.478Z,16.27
2023-05-21T10:21:08.548Z,17.88
2023-05-21T10:23:38.005Z,15.95
2023-05-21T10:26:06.907Z,15.30
2023-05-21T10:28:35.102Z,16.08
2023-05-21T10:31:02.336Z,17.17
2023-05-21T10:33:29.932Z,15.52
2023-05-21T10:35:59.395Z,15.35
2023-05-21T10:38:27.970Z,15.55
2023-05-21T10:40:56.051Z,16.38
2023-05-21T10:43:44.881Z,16.50
2023-05-21T10:46:43.350Z,15.65
2023-05-21T10:49:45.058Z,16.45
2023-05-21T10:52:37.096Z,14.88
2023-05-21T10:55:17.018Z,17.20
2023-05-21T10:57:47.465Z,15.88
2023-05-21T11:00:18.405Z,15.73
2023-05-21T11:02:46.318Z,17.65
2023-05-21T11:05:13.480Z,18.15
2023-05-21T11:08:00.572Z,17.00
2023-05-21T11:10:36.601Z,17.27
2023-05-21T11:13:15.283Z,17.75
2023-05-21T11:15:57.590Z,17.88
2023-05-21T11:18:44.897Z,16.90
2023-05-21T11:21:14.113Z,16.85
2023-05-21T11:24:02.480Z,18.13
2023-05-21T11:26:49.942Z,18.10
2023-05-21T11:29:18.307Z,16.77
2023-05-21T11:32:12.904Z,19.00
2023-05-21T11:34:45.997Z,19.65
2023-05-21T11:37:27.126Z,17.60
2023-05-21T11:39:54.509Z,17.50
2023-05-21T11:42:38.941Z,18.25
2023-05-21T11:45:06.287Z,17.83
2023-05-21T11:47:33.636Z,17.80
2023-05-21T11:50:04.588Z,17.77
2023-05-21T11:52:33.337Z,17.45
2023-05-21T11:55:00.205Z,18.67
2023-05-21T11:57:31.369Z,18.35
2023-05-21T12:00:02.226Z,17.55
2023-05-21T12:02:44.481Z,17.42
2023-05-21T12:05:13.161Z,17.52
2023-05-21T12:07:40.670Z,19.33
2023-05-21T12:10:08.059Z,16.45
2023-05-21T12:12:46.068Z,17.83
2023-05-21T12:15:21.049Z,18.02
2023-05-21T12:17:51.324Z,19.00
2023-05-21T12:20:18.076Z,19.10
2023-05-21T12:22:45.298Z,18.48
2023-05-21T12:25:12.652Z,18.50
2023-05-21T12:27:39.869Z,18.10
2023-05-21T12:30:08.574Z,18.15
2023-05-21T12:32:35.466Z,17.45
2023-05-21T12:35:03.000Z,17.13
2023-05-21T12:37:35.414Z,18.63
2023-05-21T12:42:35.042Z,17.00
2023-05-21T12:45:07.583Z,16.73
2023-05-21T12:47:34.487Z,16.60
2023-05-21T12:50:03.565Z,17.23
2023-05-21T12:52:33.518Z,19.23
2023-05-21T12:55:01.198Z,16.70
2023-05-21T12:57:35.574Z,17.90
2023-05-21T13:00:09.282Z,17.52
2023-05-21T13:02:44.823Z,16.77
2023-05-21T13:05:20.469Z,16.85
2023-05-21T13:07:47.899Z,16.85
2023-05-21T13:10:17.057Z,16.40
2023-05-21T13:12:44.948Z,14.80
2023-05-21T13:15:12.964Z,15.85
2023-05-21T13:17:39.710Z,15.52
2023-05-21T13:20:12.443Z,16.20
2023-05-21T13:22:51.225Z,17.13
2023-05-21T13:25:29.660Z,15.55
2023-05-21T13:27:57.722Z,16.10
2023-05-21T13:30:24.376Z,16.13
2023-05-21T13:32:52.095Z,14.95
2023-05-21T13:35:19.257Z,16.17
2023-05-21T13:37:46.602Z,15.13
2023-05-21T13:40:15.664Z,14.85
2023-05-21T13:42:48.616Z,15.13
2023-05-21T13:45:17.903Z,14.55
2023-05-21T13:47:47.926Z,16.33
2023-05-21T13:50:15.436Z,14.70
2023-05-21T13:52:42.730Z,14.73
2023-05-21T13:55:10.565Z,13.43
2023-05-21T13:57:38.010Z,15.73
2023-05-21T14:00:06.270Z,14.13
2023-05-21T14:02:34.773Z,15.15
2023-05-21T14:05:01.644Z,15.18
2023-05-21T14:07:28.668Z,15.60
2023-05-21T14:09:56.274Z,13.48
2023-05-21T14:12:23.034Z,14.38
2023-05-21T14:14:51.965Z,16.05
2023-05-21T14:17:18.737Z,15.15
2023-05-21T14:19:45.683Z,14.43
2023-05-21T14:22:12.404Z,15.10
2023-05-21T14:24:39.766Z,14.18
2023-05-21T14:27:06.424Z,14.85
2023-05-21T14:29:33.820Z,14.63
2023-05-21T14:32:00.585Z,14.23
2023-05-21T14:34:28.009Z,15.18
2023-05-21T14:36:54.724Z,15.63
2023-05-21T14:39:22.007Z,14.90
2023-05-21T14:41:48.743Z,15.07
2023-05-21T14:44:16.401Z,14.63
2023-05-21T14:46:43.085Z,15.73
2023-05-21T14:49:12.082Z,15.32
2023-05-21T14:51:38.705Z,14.52
2023-05-21T14:54:06.091Z,14.32
2023-05-21T14:56:32.822Z,14.95
2023-05-21T14:59:00.157Z,15.65
2023-05-21T15:01:26.912Z,14.63
2023-05-21T15:03:56.291Z,14.25
2023-05-21T15:06:23.019Z,14.73
2023-05-21T15:08:50.469Z,15.63
2023-05-21T15:11:17.103Z,14.35
2023-05-21T15:13:44.348Z,14.32
2023-05-21T15:16:11.027Z,14.32
2023-05-21T15:18:39.460Z,15.57
2023-05-21T15:21:06.244Z,15.27
2023-05-21T15:23:33.518Z,17.05
2023-05-21T15:26:00.273Z,14.05
2023-05-21T15:28:27.589Z,15.18
2023-05-21T15:30:54.229Z,14.93
2023-05-21T15:33:21.523Z,16.23
2023-05-21T15:35:48.364Z,15.60
2023-05-21T15:38:15.838Z,15.27
2023-05-21T15:40:42.664Z,15.73
2023-05-21T15:43:10.075Z,14.65
2023-05-21T15:45:38.473Z,14.90
2023-05-21T15:48:06.614Z,15.30
2023-05-21T15:50:35.394Z,15.43
2023-05-21T15:53:03.990Z,15.13
2023-05-21T15:55:34.068Z,15.80
2023-05-21T15:58:02.510Z,15.07
2023-05-21T16:00:29.401Z,15.65
2023-05-21T16:02:56.376Z,14.25
2023-05-21T16:05:23.113Z,16.58
2023-05-21T16:07:50.473Z,15.43
2023-05-21T16:10:17.305Z,14.88
2023-05-21T16:12:44.658Z,14.20
2023-05-21T16:15:11.466Z,13.63
2023-05-21T16:17:38.809Z,14.38
2023-05-21T16:20:06.686Z,14.23
2023-05-21T16:22:33.988Z,14.27
2023-05-21T16:25:00.643Z,14.35
2023-05-21T16:27:27.935Z,13.77
2023-05-21T16:29:54.613Z,13.63
2023-05-21T16:32:22.096Z,14.30
2023-05-21T16:34:49.001Z,14.48
2023-05-21T16:37:16.328Z,13.35
2023-05-21T16:39:42.967Z,13.32
2023-05-21T16:42:10.276Z,14.15
2023-05-21T16:44:37.782Z,14.75
2023-05-21T16:47:05.507Z,14.25
2023-05-21T16:49:32.171Z,15.25
2023-05-21T16:51:59.457Z,14.27
2023-05-21T16:54:27.093Z,14.30
2023-05-21T16:56:55.205Z,14.30
2023-05-21T16:59:21.881Z,14.43
2023-05-21T17:01:49.206Z,13.40
2023-05-21T17:04:15.955Z,13.68
2023-05-21T17:06:43.223Z,14.25
2023-05-21T17:09:09.870Z,13.27
2023-05-21T17:11:37.171Z,14.20
2023-05-21T17:14:03.856Z,13.73
2023-05-21T17:16:31.332Z,14.07
2023-05-21T17:18:58.053Z,14.15
2023-05-21T17:21:26.653Z,14.35
2023-05-21T17:23:53.297Z,14.80
2023-05-21T17:26:21.937Z,14.60
2023-05-21T17:28:48.568Z,13.85
2023-05-21T17:31:16.544Z,14.15
2023-05-21T17:33:43.441Z,13.80
2023-05-21T17:36:10.898Z,14.63
2023-05-21T17:38:37.523Z,13.40
2023-05-21T17:41:05.295Z,14.38
2023-05-21T17:43:32.073Z,13.32
2023-05-21T17:45:59.497Z,14.80
2023-05-21T17:48:26.360Z,13.57
2023-05-21T17:50:53.722Z,14.10
2023-05-21T17:53:20.496Z,13.43
2023-05-21T17:55:47.782Z,13.20
2023-05-21T17:58:14.456Z,13.85
2023-05-21T18:00:41.806Z,14.60
2023-05-21T18:03:08.556Z,14.38
2023-05-21T18:05:36.695Z,14.27
2023-05-21T18:08:04.011Z,13.57
2023-05-21T18:10:31.308Z,13.38
2023-05-21T18:12:57.971Z,13.82
2023-05-21T18:15:25.463Z,14.15
2023-05-21T18:17:52.173Z,13.95
2023-05-21T18:20:19.493Z,13.60
2023-05-21T18:22:46.187Z,13.85
2023-05-21T18:25:13.543Z,14.73
2023-05-21T18:27:40.270Z,14.15
2023-05-21T18:30:08.425Z,14.90
2023-05-21T18:32:38.237Z,15.07
2023-05-21T18:35:10.700Z,14.63
2023-05-21T18:37:38.677Z,14.70
2023-05-21T18:40:07.589Z,13.77
2023-05-21T18:42:34.303Z,14.23
2023-05-21T18:45:07.541Z,14.65
2023-05-21T18:47:34.657Z,14.90
2023-05-21T18:50:01.906Z,14.70
2023-05-21T18:52:28.610Z,13.52
2023-05-21T18:54:56.150Z,14.77
2023-05-21T18:57:23.893Z,13.95
2023-05-21T18:59:51.187Z,14.38
2023-05-21T19:02:19.500Z,14.95
2023-05-21T19:04:46.879Z,14.45
2023-05-21T19:07:15.811Z,14.80
2023-05-21T19:09:42.842Z,14.68
2023-05-21T19:12:09.626Z,14.73
2023-05-21T19:14:36.664Z,15.45
2023-05-21T19:17:03.380Z,15.82
2023-05-21T19:19:30.941Z,15.05
2023-05-21T19:21:58.104Z,15.68
2023-05-21T19:24:25.533Z,13.95
2023-05-21T19:26:52.169Z,15.95
2023-05-21T19:29:19.126Z,14.93
2023-05-21T19:31:45.962Z,16.38
2023-05-21T19:34:13.057Z,16.30
2023-05-21T19:36:52.367Z,16.30
2023-05-21T19:39:21.372Z,15.95
2023-05-21T19:41:48.190Z,16.10
2023-05-21T19:44:14.996Z,15.35
2023-05-21T19:46:41.935Z,16.63
2023-05-21T19:49:10.883Z,15.68
2023-05-21T19:51:38.257Z,15.95
2023-05-21T19:54:04.941Z,17.58
2023-05-21T19:56:31.590Z,17.00
2023-05-21T19:58:58.248Z,16.65
2023-05-21T20:01:25.525Z,18.17
2023-05-21T20:03:52.300Z,17.75
2023-05-21T20:06:20.943Z,17.40
2023-05-21T20:08:47.851Z,17.70
2023-05-21T20:11:15.206Z,19.08
2023-05-21T20:13:42.193Z,19.73
2023-05-21T20:16:10.752Z,18.70
2023-05-21T20:18:37.469Z,18.10
2023-05-21T20:21:06.037Z,19.80
2023-05-21T20:23:32.682Z,19.85
2023-05-21T20:25:59.653Z,20.48
2023-05-21T20:28:26.299Z,19.48
2023-05-21T20:30:59.086Z,20.40
2023-05-21T20:33:27.733Z,21.70
2023-05-21T20:35:55.046Z,22.17
2023-05-21T20:38:21.943Z,20.95
2023-05-21T20:40:48.925Z,20.55
2023-05-21T20:43:15.645Z,20.08
2023-05-21T20:45:43.507Z,20.65
2023-05-21T20:48:11.800Z,20.90
2023-05-21T20:50:41.098Z,22.17
2023-05-21T20:53:08.475Z,20.90
2023-05-21T20:55:35.821Z,20.52
2023-05-21T20:58:03.624Z,22.08
2023-05-21T21:00:33.666Z,22.00
2023-05-21T21:03:03.589Z,21.77
2023-05-21T21:05:31.161Z,22.38
2023-05-21T21:08:02.432Z,20.83
2023-05-21T21:10:29.533Z,21.10
2023-05-21T21:12:56.182Z,23.05
2023-05-21T21:15:23.477Z,25.38
2023-05-21T21:17:50.152Z,26.13
2023-05-21T21:20:18.815Z,26.45
2023-05-21T21:22:45.956Z,25.23
2023-05-21T21:25:16.139Z,25.52
2023-05-21T21:27:43.903Z,24.67
2023-05-21T21:30:10.950Z,25.42
2023-05-21T21:32:38.338Z,24.90
2023-05-21T21:35:05.847Z,24.13
2023-05-21T21:37:33.163Z,23.98
2023-05-21T21:39:59.824Z,23.73
2023-05-21T21:42:27.135Z,23.17
2023-05-21T21:44:53.780Z,22.95
2023-05-21T21:47:21.069Z,22.15
2023-05-21T21:49:47.994Z,22.35
2023-05-21T21:52:16.799Z,22.05
2023-05-21T21:54:43.484Z,20.70
2023-05-21T21:57:10.752Z,22.17
2023-05-21T21:59:38.315Z,22.35
2023-05-21T22:02:06.355Z,22.25
2023-05-21T22:04:33.095Z,22.83
2023-05-21T22:07:01.836Z,21.58
2023-05-21T22:09:28.648Z,22.40
2023-05-21T22:11:56.331Z,22.52
2023-05-21T22:14:23.762Z,23.38
2023-05-21T22:16:52.883Z,23.63
2023-05-21T22:19:22.282Z,23.13
2023-05-21T22:21:49.797Z,20.67
2023-05-21T22:24:31.030Z,22.80
2023-05-21T22:26:59.651Z,21.80
2023-05-21T22:29:26.303Z,21.15
2023-05-21T22:31:53.269Z,21.55
2023-05-21T22:34:20.462Z,22.23
2023-05-21T22:36:47.245Z,21.75
2023-05-21T22:39:14.336Z,20.92
2023-05-21T22:41:41.148Z,22.65
2023-05-21T22:44:08.413Z,21.42
2023-05-21T22:46:38.344Z,22.63
2023-05-21T22:49:06.485Z,22.02
2023-05-21T22:51:34.302Z,22.60
2023-05-21T22:54:01.953Z,21.98
2023-05-21T22:56:29.084Z,21.30
2023-05-21T22:58:56.835Z,20.58
2023-05-21T23:01:23.890Z,19.52
2023-05-21T23:03:51.717Z,20.02
2023-05-21T23:06:18.603Z,20.15
2023-05-21T23:08:46.095Z,18.92
2023-05-21T23:11:12.795Z,19.35
2023-05-21T23:13:40.094Z,19.20
2023-05-21T23:16:07.287Z,17.58
2023-05-21T23:18:35.570Z,18.33
2023-05-21T23:21:02.394Z,18.65
2023-05-21T23:23:29.917Z,18.25
2023-05-21T23:25:58.733Z,17.95
2023-05-21T23:28:26.693Z,18.52
2023-05-21T23:30:53.402Z,18.38
2023-05-21T23:33:20.821Z,18.83
2023-05-21T23:35:47.529Z,18.42
2023-05-21T23:38:14.839Z,18.65
2023-05-21T23:40:41.825Z,16.40
2023-05-21T23:43:09.135Z,15.90
2023-05-21T23:45:35.823Z,15.00
2023-05-21T23:48:03.477Z,14.95
2023-05-21T23:50:30.182Z,13.23
2023-05-21T23:52:57.481Z,12.90
2023-05-21T23:55:24.158Z,13.77
2023-05-21T23:57:51.666Z,12.18
